createdAt,value
2019-02-27T00:01:21.637Z,1.60
2019-02-27T00:06:57.403Z,1.90
2019-02-27T00:09:32.871Z,2.00
2019-02-27T00:12:05.568Z,2.00
2019-02-27T00:14:38.853Z,1.90
2019-02-27T00:17:12.235Z,2.00
2019-02-27T00:22:47.857Z,2.10
2019-02-27T00:25:22.729Z,2.20
2019-02-27T00:27:56.081Z,2.20
2019-02-27T00:30:29.348Z,2.20
2019-02-27T00:33:02.591Z,2.10
2019-02-27T00:35:59.395Z,2.10
2019-02-27T00:38:19.744Z,2.00
2019-02-27T00:40:53.149Z,2.00
2019-02-27T00:43:28.470Z,2.00
2019-02-27T00:46:01.373Z,1.90
2019-02-27T00:48:40.002Z,1.90
2019-02-27T00:51:13.293Z,1.90
2019-02-27T00:53:46.539Z,1.80
2019-02-27T00:56:19.949Z,1.80
2019-02-27T00:58:53.317Z,1.80
2019-02-27T01:01:26.623Z,1.80
2019-02-27T01:04:22.639Z,1.70
2019-02-27T01:06:55.915Z,1.70
2019-02-27T01:09:29.233Z,1.70
2019-02-27T01:12:02.601Z,1.60
2019-02-27T01:14:37.080Z,1.60
2019-02-27T01:20:19.863Z,1.60
2019-02-27T01:22:53.113Z,1.50
2019-02-27T01:25:26.492Z,1.50
2019-02-27T01:28:01.619Z,1.40
2019-02-27T01:30:34.761Z,1.40
2019-02-27T01:33:08.020Z,1.30
2019-02-27T01:35:41.394Z,1.20
2019-02-27T01:38:14.660Z,1.30
2019-02-27T01:40:51.142Z,1.20
2019-02-27T01:43:23.438Z,1.20
2019-02-27T01:45:57.130Z,1.20
2019-02-27T01:48:30.348Z,1.10
2019-02-27T01:51:03.729Z,1.10
2019-02-27T01:53:37.939Z,1.10
2019-02-27T01:56:13.285Z,1.10
2019-02-27T01:58:46.476Z,1.00
2019-02-27T02:04:05.094Z,0.90
2019-02-27T02:06:38.366Z,0.80
2019-02-27T02:09:36.382Z,0.70
2019-02-27T02:12:39.053Z,0.70
2019-02-27T02:15:21.000Z,0.60
2019-02-27T02:18:36.642Z,0.50
2019-02-27T02:21:36.139Z,0.50
2019-02-27T02:24:39.066Z,0.50
2019-02-27T02:27:54.184Z,0.50
2019-02-27T02:30:52.290Z,0.40
2019-02-27T02:33:45.925Z,0.40
2019-02-27T02:36:35.636Z,0.30
2019-02-27T02:39:41.912Z,0.20
2019-02-27T02:42:28.483Z,0.10
2019-02-27T02:45:36.557Z,0.10
2019-02-27T02:49:06.444Z,0.10
2019-02-27T02:51:44.820Z,0.10
2019-02-27T02:54:45.145Z,0.10
2019-02-27T02:57:35.864Z,0.10
2019-02-27T03:00:28.923Z,0.10
2019-02-27T03:03:18.343Z,0.10
2019-02-27T03:06:23.021Z,0.00
2019-02-27T03:12:34.713Z,0.00
2019-02-27T03:15:30.635Z,0.00
2019-02-27T03:18:21.643Z,-0.10
2019-02-27T03:21:27.368Z,-0.20
2019-02-27T03:24:28.370Z,-0.40
2019-02-27T03:27:30.644Z,-0.30
2019-02-27T03:30:38.199Z,-0.30
2019-02-27T03:34:05.634Z,-0.30
2019-02-27T03:37:04.137Z,-0.30
2019-02-27T03:40:11.985Z,-0.50
2019-02-27T03:43:18.133Z,-0.40
2019-02-27T03:46:07.535Z,-0.50
2019-02-27T03:49:12.462Z,-0.50
2019-02-27T03:52:00.658Z,-0.50
2019-02-27T03:55:00.603Z,-0.50
2019-02-27T03:57:56.463Z,-0.50
2019-02-27T04:00:58.191Z,-0.50
2019-02-27T04:03:55.306Z,-0.50
2019-02-27T04:07:09.590Z,-0.50
2019-02-27T04:12:51.540Z,-0.50
2019-02-27T04:15:23.465Z,-0.60
2019-02-27T04:17:54.818Z,-0.50
2019-02-27T04:20:28.114Z,-0.60
2019-02-27T04:23:01.388Z,-0.60
2019-02-27T04:25:34.708Z,-0.70
2019-02-27T04:28:08.085Z,-0.70
2019-02-27T04:30:41.404Z,-0.70
2019-02-27T04:33:14.769Z,-0.70
2019-02-27T04:35:48.194Z,-0.90
2019-02-27T04:38:21.461Z,-1.10
2019-02-27T04:40:54.771Z,-1.20
2019-02-27T04:43:32.017Z,-1.30
2019-02-27T04:46:04.253Z,-1.20
2019-02-27T04:48:37.622Z,-1.20
2019-02-27T04:51:11.050Z,-1.10
2019-02-27T04:53:44.320Z,-1.10
2019-02-27T04:56:17.729Z,-1.00
2019-02-27T04:58:52.174Z,-0.90
2019-02-27T05:01:25.543Z,-1.00
2019-02-27T05:04:01.094Z,-0.90
2019-02-27T05:06:46.917Z,-0.90
2019-02-27T05:09:19.765Z,-0.90
2019-02-27T05:11:54.356Z,-0.80
2019-02-27T05:14:28.223Z,-0.80
2019-02-27T05:17:01.619Z,-1.00
2019-02-27T05:19:36.813Z,-1.00
2019-02-27T05:22:09.911Z,-1.00
2019-02-27T05:24:43.271Z,-1.00
2019-02-27T05:27:16.401Z,-0.90
2019-02-27T05:29:49.792Z,-1.20
2019-02-27T05:32:25.267Z,-1.10
2019-02-27T05:34:58.204Z,-1.00
2019-02-27T05:37:41.405Z,-1.00
2019-02-27T05:40:14.675Z,-1.30
2019-02-27T05:42:47.953Z,-1.40
2019-02-27T05:45:21.262Z,-1.30
2019-02-27T05:47:54.697Z,-1.20
2019-02-27T05:50:33.984Z,-1.30
2019-02-27T05:53:04.897Z,-1.20
2019-02-27T05:55:39.209Z,-1.10
2019-02-27T05:58:13.222Z,-1.20
2019-02-27T06:00:46.543Z,-1.30
2019-02-27T06:03:19.959Z,-1.30
2019-02-27T06:05:53.224Z,-1.20
2019-02-27T06:08:26.568Z,-1.20
2019-02-27T06:10:59.913Z,-1.20
2019-02-27T06:13:33.280Z,-1.30
2019-02-27T06:16:09.210Z,-1.20
2019-02-27T06:18:43.710Z,-1.10
2019-02-27T06:21:16.964Z,-1.00
2019-02-27T06:23:50.522Z,-0.90
2019-02-27T06:26:23.800Z,-0.80
2019-02-27T06:28:57.290Z,-0.80
2019-02-27T06:31:30.586Z,-0.70
2019-02-27T06:34:03.940Z,-0.60
2019-02-27T06:36:42.039Z,-0.60
2019-02-27T06:39:12.471Z,-0.50
2019-02-27T06:41:47.411Z,-0.40
2019-02-27T06:44:20.783Z,-0.40
2019-02-27T06:46:54.742Z,-0.30
2019-02-27T06:49:28.150Z,-0.20
2019-02-27T06:52:01.390Z,-0.10
2019-02-27T06:54:34.709Z,0.00
2019-02-27T06:57:09.331Z,0.10
2019-02-27T06:59:42.658Z,0.10
2019-02-27T07:02:15.972Z,0.20
2019-02-27T07:04:50.640Z,0.20
2019-02-27T07:07:24.095Z,0.30
2019-02-27T07:09:57.374Z,0.40
2019-02-27T07:12:30.761Z,0.50
2019-02-27T07:15:10.220Z,0.60
2019-02-27T07:17:43.931Z,0.60
2019-02-27T07:20:18.038Z,0.70
2019-02-27T07:22:51.389Z,0.80
2019-02-27T07:25:24.876Z,0.90
2019-02-27T07:27:58.144Z,1.00
2019-02-27T07:30:31.432Z,1.20
2019-02-27T07:33:06.693Z,1.30
2019-02-27T07:35:39.652Z,1.40
2019-02-27T07:38:12.893Z,1.50
2019-02-27T07:40:46.193Z,1.70
2019-02-27T07:43:19.441Z,1.80
2019-02-27T07:45:54.288Z,1.90
2019-02-27T07:48:27.716Z,2.00
2019-02-27T07:51:02.344Z,2.20
2019-02-27T07:53:35.705Z,2.30
2019-02-27T07:56:09.028Z,2.40
2019-02-27T07:58:42.283Z,2.40
2019-02-27T08:01:28.252Z,2.50
2019-02-27T08:04:01.490Z,2.60
2019-02-27T08:06:35.058Z,2.70
2019-02-27T08:09:10.212Z,2.70
2019-02-27T08:11:47.138Z,2.80
2019-02-27T08:14:18.478Z,2.90
2019-02-27T08:16:51.838Z,3.00
2019-02-27T08:19:25.242Z,3.20
2019-02-27T08:21:58.485Z,3.30
2019-02-27T08:24:56.812Z,3.50
2019-02-27T08:27:30.110Z,3.70
2019-02-27T08:30:03.388Z,3.80
2019-02-27T08:32:38.629Z,3.90
2019-02-27T08:35:12.642Z,3.90
2019-02-27T08:37:45.955Z,4.00
2019-02-27T08:40:24.055Z,4.10
2019-02-27T08:42:55.470Z,4.20
2019-02-27T08:45:29.644Z,4.20
2019-02-27T08:48:02.938Z,4.30
2019-02-27T08:50:37.291Z,4.30
2019-02-27T08:53:10.626Z,4.40
2019-02-27T08:55:45.138Z,4.40
2019-02-27T08:58:18.535Z,4.30
2019-02-27T09:00:51.952Z,4.40
2019-02-27T09:03:25.390Z,4.40
2019-02-27T09:05:58.645Z,4.50
2019-02-27T09:08:32.052Z,4.60
2019-02-27T09:11:06.828Z,4.70
2019-02-27T09:13:40.440Z,4.80
2019-02-27T09:16:13.787Z,4.80
2019-02-27T09:18:47.093Z,4.90
2019-02-27T09:21:20.360Z,4.90
2019-02-27T09:23:53.571Z,5.00
2019-02-27T09:26:26.850Z,5.10
2019-02-27T09:29:00.244Z,5.20
2019-02-27T09:31:34.737Z,5.20
2019-02-27T09:34:08.584Z,5.30
2019-02-27T09:36:43.174Z,5.30
2019-02-27T09:39:17.172Z,5.40
2019-02-27T09:41:51.245Z,5.50
2019-02-27T09:44:24.716Z,5.50
2019-02-27T09:47:00.328Z,5.60
2019-02-27T09:49:33.873Z,5.70
2019-02-27T09:55:00.290Z,6.10
2019-02-27T09:57:35.308Z,6.10
2019-02-27T10:00:41.806Z,6.20
2019-02-27T10:06:14.379Z,6.30
2019-02-27T10:08:47.810Z,6.40
2019-02-27T10:11:22.341Z,6.50
2019-02-27T10:14:03.370Z,6.70
2019-02-27T10:19:28.723Z,6.60
2019-02-27T10:22:02.113Z,6.80
2019-02-27T10:24:36.836Z,6.80
2019-02-27T10:27:10.360Z,6.90
2019-02-27T10:29:47.551Z,6.80
2019-02-27T10:32:18.496Z,6.80
2019-02-27T10:34:53.545Z,6.90
2019-02-27T10:37:26.725Z,7.00
2019-02-27T10:39:59.980Z,7.10
2019-02-27T10:42:33.335Z,7.20
2019-02-27T10:45:11.033Z,7.30
2019-02-27T10:47:44.390Z,7.30
2019-02-27T10:50:18.125Z,7.40
2019-02-27T10:52:51.481Z,7.50
2019-02-27T10:55:26.788Z,7.70
2019-02-27T10:58:00.041Z,7.60
2019-02-27T11:00:34.444Z,7.70
2019-02-27T11:03:07.833Z,7.70
2019-02-27T11:05:41.420Z,7.90
2019-02-27T11:08:15.366Z,7.90
2019-02-27T11:10:48.799Z,8.00
2019-02-27T11:13:23.190Z,8.00
2019-02-27T11:15:59.182Z,8.10
2019-02-27T11:18:32.409Z,8.00
2019-02-27T11:21:05.919Z,7.90
2019-02-27T11:23:45.861Z,7.90
2019-02-27T11:26:19.184Z,8.10
2019-02-27T11:28:53.421Z,8.30
2019-02-27T11:31:26.821Z,8.50
2019-02-27T11:34:01.182Z,8.70
2019-02-27T11:39:25.518Z,9.00
2019-02-27T11:41:58.913Z,9.00
2019-02-27T11:44:33.481Z,9.00
2019-02-27T11:47:10.924Z,9.10
2019-02-27T11:49:41.812Z,9.00
2019-02-27T11:52:15.092Z,9.00
2019-02-27T11:54:48.442Z,9.10
2019-02-27T11:57:21.720Z,9.00
2019-02-27T11:59:54.912Z,9.00
2019-02-27T12:02:36.719Z,9.20
2019-02-27T12:05:05.456Z,9.20
2019-02-27T12:07:38.852Z,9.30
2019-02-27T12:10:22.096Z,9.40
2019-02-27T12:12:59.708Z,9.40
2019-02-27T12:15:30.388Z,9.40
2019-02-27T12:18:03.786Z,9.40
2019-02-27T12:20:37.073Z,9.40
2019-02-27T12:23:10.847Z,9.40
2019-02-27T12:25:44.091Z,9.30
2019-02-27T12:28:18.325Z,9.30
2019-02-27T12:30:51.591Z,9.20
2019-02-27T12:33:29.148Z,9.30
2019-02-27T12:36:00.113Z,9.40
2019-02-27T12:38:33.372Z,9.50
2019-02-27T12:41:06.623Z,9.40
2019-02-27T12:43:39.863Z,9.40
2019-02-27T12:46:14.891Z,9.50
2019-02-27T12:48:48.221Z,9.50
2019-02-27T12:51:21.585Z,9.50
2019-02-27T12:53:55.230Z,9.40
2019-02-27T12:56:28.503Z,9.50
2019-02-27T12:59:01.935Z,9.40
2019-02-27T13:01:37.977Z,9.40
2019-02-27T13:04:15.979Z,9.20
2019-02-27T13:06:46.431Z,9.10
2019-02-27T13:09:19.778Z,9.10
2019-02-27T13:11:54.932Z,9.10
2019-02-27T13:14:28.354Z,9.30
2019-02-27T13:17:01.639Z,9.50
2019-02-27T13:19:34.890Z,9.40
2019-02-27T13:22:08.283Z,9.40
2019-02-27T13:24:41.590Z,9.40
2019-02-27T13:27:14.850Z,9.50
2019-02-27T13:29:48.131Z,9.50
2019-02-27T13:32:21.391Z,9.50
2019-02-27T13:34:54.650Z,9.40
2019-02-27T13:37:27.923Z,9.40
2019-02-27T13:40:01.372Z,9.40
2019-02-27T13:42:35.883Z,9.50
2019-02-27T13:45:13.805Z,9.50
2019-02-27T13:47:47.156Z,9.60
2019-02-27T13:50:23.583Z,9.70
2019-02-27T13:52:55.543Z,9.70
2019-02-27T13:55:28.982Z,9.70
2019-02-27T13:58:03.751Z,9.80
2019-02-27T14:00:38.920Z,9.80
2019-02-27T14:03:12.654Z,9.90
2019-02-27T14:05:46.626Z,9.80
2019-02-27T14:08:19.947Z,9.80
2019-02-27T14:10:53.949Z,9.90
2019-02-27T14:13:27.459Z,9.90
2019-02-27T14:16:01.530Z,10.10
2019-02-27T14:18:35.557Z,10.10
2019-02-27T14:21:09.541Z,10.00
2019-02-27T14:23:42.969Z,10.10
2019-02-27T14:26:16.263Z,10.20
2019-02-27T14:28:52.132Z,10.20
2019-02-27T14:31:24.656Z,10.20
2019-02-27T14:33:57.953Z,10.20
2019-02-27T14:36:31.351Z,10.20
2019-02-27T14:39:07.653Z,10.20
2019-02-27T14:41:41.182Z,10.20
2019-02-27T14:44:14.824Z,10.20
2019-02-27T14:46:48.162Z,10.20
2019-02-27T14:49:23.860Z,10.20
2019-02-27T14:51:57.770Z,10.20
2019-02-27T14:54:32.252Z,10.10
2019-02-27T14:57:06.644Z,10.10
2019-02-27T14:59:40.042Z,10.10
2019-02-27T15:02:13.465Z,10.10
2019-02-27T15:04:46.732Z,10.00
2019-02-27T15:07:22.152Z,10.00
2019-02-27T15:09:57.140Z,9.80
2019-02-27T15:12:30.511Z,9.70
2019-02-27T15:15:04.000Z,9.70
2019-02-27T15:17:37.426Z,9.60
2019-02-27T15:20:15.382Z,9.60
2019-02-27T15:22:48.696Z,9.50
2019-02-27T15:25:22.121Z,9.40
2019-02-27T15:27:58.384Z,9.30
2019-02-27T15:30:32.484Z,9.30
2019-02-27T15:33:05.833Z,9.20
2019-02-27T15:35:39.244Z,9.10
2019-02-27T15:38:12.753Z,9.10
2019-02-27T15:40:47.672Z,9.00
2019-02-27T15:43:22.340Z,9.00
2019-02-27T15:45:55.653Z,8.90
2019-02-27T15:48:29.105Z,8.70
2019-02-27T15:51:02.475Z,8.70
2019-02-27T15:53:35.843Z,8.70
2019-02-27T15:56:09.118Z,8.70
2019-02-27T15:58:42.412Z,8.60
2019-02-27T16:01:15.779Z,8.50
2019-02-27T16:03:49.134Z,8.50
2019-02-27T16:06:22.466Z,8.40
2019-02-27T16:08:58.304Z,8.30
2019-02-27T16:11:30.898Z,8.20
2019-02-27T16:14:09.126Z,8.20
2019-02-27T16:16:39.505Z,8.20
2019-02-27T16:19:12.924Z,8.20
2019-02-27T16:21:46.326Z,8.10
2019-02-27T16:24:19.712Z,8.10
2019-02-27T16:26:54.322Z,8.10
2019-02-27T16:29:27.705Z,8.10
2019-02-27T16:32:01.046Z,8.10
2019-02-27T16:34:34.424Z,8.10
2019-02-27T16:37:07.870Z,8.00
2019-02-27T16:39:42.561Z,8.10
2019-02-27T16:42:16.143Z,8.10
2019-02-27T16:44:49.434Z,8.10
2019-02-27T16:47:23.754Z,8.10
2019-02-27T16:49:58.175Z,8.10
2019-02-27T16:52:32.713Z,8.10
2019-02-27T16:55:09.342Z,8.10
2019-02-27T16:57:42.652Z,8.10
2019-02-27T17:00:22.510Z,8.10
2019-02-27T17:02:57.096Z,8.10
2019-02-27T17:05:31.863Z,8.10
2019-02-27T17:08:05.563Z,8.10
2019-02-27T17:10:41.998Z,8.10
2019-02-27T17:13:15.604Z,8.10
2019-02-27T17:15:49.152Z,8.00
2019-02-27T17:18:27.895Z,8.00
2019-02-27T17:20:57.404Z,8.10
2019-02-27T17:23:30.660Z,8.00
2019-02-27T17:26:04.587Z,8.00
2019-02-27T17:28:40.739Z,8.00
2019-02-27T17:31:14.178Z,7.90
2019-02-27T17:33:47.431Z,7.80
2019-02-27T17:36:21.921Z,7.80
2019-02-27T17:38:55.239Z,7.70
2019-02-27T17:41:28.664Z,7.70
2019-02-27T17:44:05.148Z,7.60
2019-02-27T17:46:37.063Z,7.50
2019-02-27T17:49:10.316Z,7.50
2019-02-27T17:51:44.544Z,7.50
2019-02-27T17:54:17.819Z,7.40
2019-02-27T17:56:51.107Z,7.30
2019-02-27T17:59:34.493Z,7.20
2019-02-27T18:02:07.917Z,7.20
2019-02-27T18:04:41.201Z,7.20
2019-02-27T18:07:14.482Z,7.10
2019-02-27T18:09:48.614Z,7.10
2019-02-27T18:12:26.753Z,7.00
2019-02-27T18:14:58.541Z,7.00
2019-02-27T18:17:34.680Z,6.90
2019-02-27T18:20:10.559Z,6.80
2019-02-27T18:22:45.904Z,6.70
2019-02-27T18:25:19.351Z,6.70
2019-02-27T18:27:52.737Z,6.60
2019-02-27T18:30:26.513Z,6.60
2019-02-27T18:33:01.158Z,6.60
2019-02-27T18:35:34.642Z,6.60
2019-02-27T18:38:08.074Z,6.50
2019-02-27T18:40:42.670Z,6.50
2019-02-27T18:43:16.195Z,6.40
2019-02-27T18:45:50.825Z,6.30
2019-02-27T18:48:24.535Z,6.30
2019-02-27T18:50:58.686Z,6.30
2019-02-27T18:53:33.737Z,6.30
2019-02-27T18:56:07.075Z,6.20
2019-02-27T18:58:40.492Z,6.10
2019-02-27T19:01:13.763Z,6.10
2019-02-27T19:03:47.578Z,6.20
2019-02-27T19:06:21.071Z,6.20
2019-02-27T19:08:54.524Z,6.10
2019-02-27T19:11:27.838Z,6.10
2019-02-27T19:14:02.382Z,6.10
2019-02-27T19:16:36.366Z,6.10
2019-02-27T19:19:13.785Z,6.10
2019-02-27T19:21:47.508Z,6.00
2019-02-27T19:24:26.639Z,6.00
2019-02-27T19:26:55.905Z,6.00
2019-02-27T19:29:31.882Z,5.90
2019-02-27T19:32:07.203Z,5.90
2019-02-27T19:34:41.442Z,5.80
2019-02-27T19:37:15.406Z,5.70
2019-02-27T19:39:48.887Z,5.70
2019-02-27T19:42:22.146Z,5.70
2019-02-27T19:44:55.444Z,5.60
2019-02-27T19:47:28.698Z,5.60
2019-02-27T19:50:02.054Z,5.50
2019-02-27T19:52:35.830Z,5.50
2019-02-27T19:55:11.053Z,5.40
2019-02-27T19:57:44.241Z,5.50
2019-02-27T20:00:24.576Z,5.40
2019-02-27T20:03:01.165Z,5.40
2019-02-27T20:05:32.959Z,5.30
2019-02-27T20:08:09.745Z,5.30
2019-02-27T20:10:41.331Z,5.30
2019-02-27T20:13:14.886Z,5.30
2019-02-27T20:15:50.006Z,5.30
2019-02-27T20:18:27.413Z,5.30
2019-02-27T20:21:01.032Z,5.30
2019-02-27T20:23:34.278Z,5.20
2019-02-27T20:26:13.873Z,5.20
2019-02-27T20:28:42.657Z,5.20
2019-02-27T20:31:20.255Z,5.20
2019-02-27T20:33:51.115Z,5.20
2019-02-27T20:36:24.521Z,5.20
2019-02-27T20:38:57.958Z,5.20
2019-02-27T20:41:34.502Z,5.20
2019-02-27T20:44:09.068Z,5.20
2019-02-27T20:46:46.272Z,5.20
2019-02-27T20:49:18.444Z,5.20
2019-02-27T20:51:51.948Z,5.20
2019-02-27T20:54:25.683Z,5.30
2019-02-27T20:56:58.925Z,5.20
2019-02-27T20:59:32.264Z,5.20
2019-02-27T21:02:05.562Z,5.20
2019-02-27T21:04:39.209Z,5.30
2019-02-27T21:07:21.862Z,5.30
2019-02-27T21:09:47.551Z,5.20
2019-02-27T21:12:20.932Z,5.30
2019-02-27T21:14:55.168Z,5.30
2019-02-27T21:17:29.212Z,5.30
2019-02-27T21:20:02.533Z,5.30
2019-02-27T21:22:36.004Z,5.20
2019-02-27T21:25:14.913Z,5.40
2019-02-27T21:27:50.369Z,5.30
2019-02-27T21:30:26.103Z,5.40
2019-02-27T21:32:59.271Z,5.30
2019-02-27T21:35:32.636Z,5.40
2019-02-27T21:38:05.920Z,5.30
2019-02-27T21:40:42.345Z,5.40
2019-02-27T21:43:15.694Z,5.30
2019-02-27T21:46:00.320Z,5.50
2019-02-27T21:48:29.273Z,5.40
2019-02-27T21:51:02.534Z,5.30
2019-02-27T21:53:38.466Z,5.30
2019-02-27T21:56:18.849Z,5.30
2019-02-27T21:58:52.292Z,5.30
2019-02-27T22:04:29.183Z,5.40
2019-02-27T22:07:15.482Z,5.30
2019-02-27T22:09:51.255Z,5.50
2019-02-27T22:12:36.018Z,5.40
2019-02-27T22:15:30.622Z,5.40
2019-02-27T22:18:03.894Z,5.40
2019-02-27T22:20:37.176Z,5.30
2019-02-27T22:23:12.784Z,5.30
2019-02-27T22:25:45.540Z,5.30
2019-02-27T22:28:20.108Z,5.30
2019-02-27T22:31:06.752Z,5.30
2019-02-27T22:33:57.306Z,5.30
2019-02-27T22:36:30.575Z,5.30
2019-02-27T22:39:03.882Z,5.30
2019-02-27T22:41:40.622Z,5.30
2019-02-27T22:44:13.975Z,5.20
2019-02-27T22:46:47.828Z,5.20
2019-02-27T22:52:28.942Z,5.20
2019-02-27T22:55:02.421Z,5.10
2019-02-27T22:57:35.784Z,5.10
2019-02-27T23:00:44.462Z,5.10
2019-02-27T23:06:50.416Z,4.90
2019-02-27T23:09:25.587Z,4.80
2019-02-27T23:12:08.516Z,4.80
2019-02-27T23:14:41.530Z,4.70
2019-02-27T23:17:19.345Z,4.60
2019-02-27T23:19:52.759Z,4.40
2019-02-27T23:22:28.679Z,4.40
2019-02-27T23:25:00.951Z,4.30
2019-02-27T23:27:34.339Z,4.10
2019-02-27T23:30:15.893Z,4.00
2019-02-27T23:32:46.535Z,3.90
2019-02-27T23:35:19.721Z,3.80
2019-02-27T23:37:53.686Z,3.70
2019-02-27T23:40:26.992Z,3.50
2019-02-27T23:43:03.427Z,3.50
2019-02-27T23:45:35.291Z,3.40
2019-02-27T23:48:08.583Z,3.40
2019-02-27T23:50:42.597Z,3.20
2019-02-27T23:53:30.394Z,3.20
2019-02-27T23:56:07.270Z,3.10
2019-02-27T23:58:41.643Z,3.10
